sensor_id;sensor_type;location;lat;lon;timestamp;temperature;humidity
21403;DHT22;10862;51.886;17.078;2022-09-13T00:00:26;11.90;99.90
21403;DHT22;10862;51.886;17.078;2022-09-13T00:02:52;11.80;99.90
21403;DHT22;10862;51.886;17.078;2022-09-13T00:05:17;11.60;99.90
21403;DHT22;10862;51.886;17.078;2022-09-13T00:07:43;11.60;99.90
21403;DHT22;10862;51.886;17.078;2022-09-13T00:10:08;11.60;99.90
21403;DHT22;10862;51.886;17.078;2022-09-13T00:12:34;11.70;99.90
21403;DHT22;10862;51.886;17.078;2022-09-13T00:14:59;11.80;99.90
21403;DHT22;10862;51.886;17.078;2022-09-13T00:17:25;11.70;99.90
21403;DHT22;10862;51.886;17.078;2022-09-13T00:19:51;11.80;99.90
21403;DHT22;10862;51.886;17.078;2022-09-13T00:22:16;11.70;99.90
21403;DHT22;10862;51.886;17.078;2022-09-13T00:24:42;11.60;99.90
21403;DHT22;10862;51.886;17.078;2022-09-13T00:27:07;11.70;99.90
21403;DHT22;10862;51.886;17.078;2022-09-13T00:29:33;11.60;99.90
21403;DHT22;10862;51.886;17.078;2022-09-13T00:31:58;11.60;99.90
21403;DHT22;10862;51.886;17.078;2022-09-13T00:34:24;11.60;99.90
21403;DHT22;10862;51.886;17.078;2022-09-13T00:36:49;11.60;99.90
21403;DHT22;10862;51.886;17.078;2022-09-13T00:39:15;11.60;99.90
21403;DHT22;10862;51.886;17.078;2022-09-13T00:41:40;11.70;99.90
21403;DHT22;10862;51.886;17.078;2022-09-13T00:44:41;11.60;99.90
21403;DHT22;10862;51.886;17.078;2022-09-13T00:46:51;11.70;99.90
21403;DHT22;10862;51.886;17.078;2022-09-13T00:49:21;11.70;99.90
21403;DHT22;10862;51.886;17.078;2022-09-13T00:51:49;11.80;99.90
21403;DHT22;10862;51.886;17.078;2022-09-13T00:54:16;11.70;99.90
21403;DHT22;10862;51.886;17.078;2022-09-13T00:56:44;11.80;99.90
21403;DHT22;10862;51.886;17.078;2022-09-13T00:59:12;11.80;99.90
21403;DHT22;10862;51.886;17.078;2022-09-13T01:01:40;11.80;99.90
21403;DHT22;10862;51.886;17.078;2022-09-13T01:04:07;11.60;99.90
21403;DHT22;10862;51.886;17.078;2022-09-13T01:06:33;11.70;99.90
21403;DHT22;10862;51.886;17.078;2022-09-13T01:09:00;11.70;99.90
21403;DHT22;10862;51.886;17.078;2022-09-13T01:13:54;11.80;99.90
21403;DHT22;10862;51.886;17.078;2022-09-13T01:16:21;11.80;99.90
21403;DHT22;10862;51.886;17.078;2022-09-13T01:18:47;11.80;99.90
21403;DHT22;10862;51.886;17.078;2022-09-13T01:26:26;11.70;99.90
21403;DHT22;10862;51.886;17.078;2022-09-13T01:28:56;11.70;99.90
21403;DHT22;10862;51.886;17.078;2022-09-13T01:36:18;11.60;99.90
21403;DHT22;10862;51.886;17.078;2022-09-13T01:46:27;11.50;99.90
21403;DHT22;10862;51.886;17.078;2022-09-13T01:48:57;11.50;99.90
21403;DHT22;10862;51.886;17.078;2022-09-13T01:54:17;11.50;99.90
21403;DHT22;10862;51.886;17.078;2022-09-13T01:56:56;11.50;99.90
21403;DHT22;10862;51.886;17.078;2022-09-13T01:59:32;11.60;99.90
21403;DHT22;10862;51.886;17.078;2022-09-13T02:02:07;11.70;99.90
21403;DHT22;10862;51.886;17.078;2022-09-13T02:04:37;11.60;99.90
21403;DHT22;10862;51.886;17.078;2022-09-13T02:07:10;11.60;99.90
21403;DHT22;10862;51.886;17.078;2022-09-13T02:09:40;11.60;99.90
21403;DHT22;10862;51.886;17.078;2022-09-13T02:12:12;11.60;99.90
21403;DHT22;10862;51.886;17.078;2022-09-13T02:14:39;11.50;99.90
21403;DHT22;10862;51.886;17.078;2022-09-13T02:17:10;11.60;99.90
21403;DHT22;10862;51.886;17.078;2022-09-13T02:19:40;11.60;99.90
21403;DHT22;10862;51.886;17.078;2022-09-13T02:22:08;11.60;99.90
21403;DHT22;10862;51.886;17.078;2022-09-13T02:24:36;11.60;99.90
21403;DHT22;10862;51.886;17.078;2022-09-13T02:27:05;11.60;99.90
21403;DHT22;10862;51.886;17.078;2022-09-13T02:29:32;11.60;99.90
21403;DHT22;10862;51.886;17.078;2022-09-13T02:32:02;11.50;99.90
21403;DHT22;10862;51.886;17.078;2022-09-13T02:34:31;11.60;99.90
21403;DHT22;10862;51.886;17.078;2022-09-13T02:36:57;11.60;99.90
21403;DHT22;10862;51.886;17.078;2022-09-13T02:39:24;11.50;99.90
21403;DHT22;10862;51.886;17.078;2022-09-13T02:41:52;11.40;99.90
21403;DHT22;10862;51.886;17.078;2022-09-13T02:44:24;11.30;99.90
21403;DHT22;10862;51.886;17.078;2022-09-13T02:51:51;11.30;99.90
21403;DHT22;10862;51.886;17.078;2022-09-13T02:54:39;11.30;99.90
21403;DHT22;10862;51.886;17.078;2022-09-13T02:57:27;11.30;99.90
21403;DHT22;10862;51.886;17.078;2022-09-13T02:59:55;11.30;99.90
21403;DHT22;10862;51.886;17.078;2022-09-13T03:02:21;11.30;99.90
21403;DHT22;10862;51.886;17.078;2022-09-13T03:04:49;11.30;99.90
21403;DHT22;10862;51.886;17.078;2022-09-13T03:07:14;11.30;99.90
21403;DHT22;10862;51.886;17.078;2022-09-13T03:10:02;11.30;99.90
21403;DHT22;10862;51.886;17.078;2022-09-13T03:14:56;11.30;99.90
21403;DHT22;10862;51.886;17.078;2022-09-13T03:29:57;11.40;99.90
21403;DHT22;10862;51.886;17.078;2022-09-13T03:34:58;11.40;99.90
21403;DHT22;10862;51.886;17.078;2022-09-13T03:40:21;11.40;99.90
21403;DHT22;10862;51.886;17.078;2022-09-13T03:43:10;11.40;99.90
21403;DHT22;10862;51.886;17.078;2022-09-13T03:45:37;11.40;99.90
21403;DHT22;10862;51.886;17.078;2022-09-13T03:48:05;11.40;99.90
21403;DHT22;10862;51.886;17.078;2022-09-13T03:50:31;11.40;99.90
21403;DHT22;10862;51.886;17.078;2022-09-13T03:52:59;11.40;99.90
21403;DHT22;10862;51.886;17.078;2022-09-13T03:55:24;11.30;99.90
21403;DHT22;10862;51.886;17.078;2022-09-13T03:57:50;11.30;99.90
21403;DHT22;10862;51.886;17.078;2022-09-13T04:00:16;11.30;99.90
21403;DHT22;10862;51.886;17.078;2022-09-13T04:02:42;11.20;99.90
21403;DHT22;10862;51.886;17.078;2022-09-13T04:05:08;11.20;99.90
21403;DHT22;10862;51.886;17.078;2022-09-13T04:07:34;11.20;99.90
21403;DHT22;10862;51.886;17.078;2022-09-13T04:09:59;11.20;99.90
21403;DHT22;10862;51.886;17.078;2022-09-13T04:12:25;11.20;99.90
21403;DHT22;10862;51.886;17.078;2022-09-13T04:14:52;11.20;99.90
21403;DHT22;10862;51.886;17.078;2022-09-13T04:17:18;11.20;99.90
21403;DHT22;10862;51.886;17.078;2022-09-13T04:19:43;11.20;99.90
21403;DHT22;10862;51.886;17.078;2022-09-13T04:22:10;11.30;99.90
21403;DHT22;10862;51.886;17.078;2022-09-13T04:24:35;11.20;99.90
21403;DHT22;10862;51.886;17.078;2022-09-13T04:27:01;11.20;99.90
21403;DHT22;10862;51.886;17.078;2022-09-13T04:29:27;11.20;99.90
21403;DHT22;10862;51.886;17.078;2022-09-13T04:31:53;11.10;99.90
21403;DHT22;10862;51.886;17.078;2022-09-13T04:34:20;11.20;99.90
21403;DHT22;10862;51.886;17.078;2022-09-13T04:36:47;11.20;99.90
21403;DHT22;10862;51.886;17.078;2022-09-13T04:39:13;11.20;99.90
21403;DHT22;10862;51.886;17.078;2022-09-13T04:41:41;11.20;99.90
21403;DHT22;10862;51.886;17.078;2022-09-13T04:44:10;11.30;99.90
21403;DHT22;10862;51.886;17.078;2022-09-13T04:46:36;11.30;99.90
21403;DHT22;10862;51.886;17.078;2022-09-13T04:49:01;11.30;99.90
21403;DHT22;10862;51.886;17.078;2022-09-13T04:51:28;11.30;99.90
21403;DHT22;10862;51.886;17.078;2022-09-13T04:53:54;11.30;99.90
21403;DHT22;10862;51.886;17.078;2022-09-13T04:56:20;11.30;99.90
21403;DHT22;10862;51.886;17.078;2022-09-13T04:58:47;11.30;99.90
21403;DHT22;10862;51.886;17.078;2022-09-13T05:01:13;11.40;99.90
21403;DHT22;10862;51.886;17.078;2022-09-13T05:03:38;11.40;99.90
21403;DHT22;10862;51.886;17.078;2022-09-13T05:06:08;11.30;99.90
21403;DHT22;10862;51.886;17.078;2022-09-13T05:08:34;11.40;99.90
21403;DHT22;10862;51.886;17.078;2022-09-13T05:11:00;11.30;99.90
21403;DHT22;10862;51.886;17.078;2022-09-13T05:13:25;11.30;99.90
21403;DHT22;10862;51.886;17.078;2022-09-13T05:15:55;11.40;99.90
21403;DHT22;10862;51.886;17.078;2022-09-13T05:18:21;11.50;99.90
21403;DHT22;10862;51.886;17.078;2022-09-13T05:20:46;11.50;99.90
21403;DHT22;10862;51.886;17.078;2022-09-13T05:23:12;11.50;99.90
21403;DHT22;10862;51.886;17.078;2022-09-13T05:25:37;11.60;99.90
21403;DHT22;10862;51.886;17.078;2022-09-13T05:28:03;11.60;99.90
21403;DHT22;10862;51.886;17.078;2022-09-13T05:30:28;11.70;99.90
21403;DHT22;10862;51.886;17.078;2022-09-13T05:32:54;11.70;99.90
21403;DHT22;10862;51.886;17.078;2022-09-13T05:35:19;11.80;99.90
21403;DHT22;10862;51.886;17.078;2022-09-13T05:37:45;12.00;99.90
21403;DHT22;10862;51.886;17.078;2022-09-13T05:40:10;12.10;99.90
21403;DHT22;10862;51.886;17.078;2022-09-13T05:42:36;12.20;99.90
21403;DHT22;10862;51.886;17.078;2022-09-13T05:45:01;12.30;99.90
21403;DHT22;10862;51.886;17.078;2022-09-13T05:47:27;12.50;99.90
21403;DHT22;10862;51.886;17.078;2022-09-13T05:49:52;12.60;99.90
21403;DHT22;10862;51.886;17.078;2022-09-13T05:52:18;12.70;99.90
21403;DHT22;10862;51.886;17.078;2022-09-13T05:54:43;12.80;99.90
21403;DHT22;10862;51.886;17.078;2022-09-13T05:57:09;12.80;99.90
21403;DHT22;10862;51.886;17.078;2022-09-13T05:59:34;12.80;99.90
21403;DHT22;10862;51.886;17.078;2022-09-13T06:02:00;12.90;99.90
21403;DHT22;10862;51.886;17.078;2022-09-13T06:04:26;12.90;99.90
21403;DHT22;10862;51.886;17.078;2022-09-13T06:06:51;13.00;99.90
21403;DHT22;10862;51.886;17.078;2022-09-13T06:09:17;13.10;99.90
21403;DHT22;10862;51.886;17.078;2022-09-13T06:11:42;13.30;99.90
21403;DHT22;10862;51.886;17.078;2022-09-13T06:14:08;13.50;99.90
21403;DHT22;10862;51.886;17.078;2022-09-13T06:16:34;13.60;99.90
21403;DHT22;10862;51.886;17.078;2022-09-13T06:18:59;13.50;99.90
21403;DHT22;10862;51.886;17.078;2022-09-13T06:21:25;13.60;99.90
21403;DHT22;10862;51.886;17.078;2022-09-13T06:23:51;13.60;99.90
21403;DHT22;10862;51.886;17.078;2022-09-13T06:26:21;13.70;99.90
21403;DHT22;10862;51.886;17.078;2022-09-13T06:28:47;13.70;99.90
21403;DHT22;10862;51.886;17.078;2022-09-13T06:31:13;13.80;99.90
21403;DHT22;10862;51.886;17.078;2022-09-13T06:33:40;13.90;99.90
21403;DHT22;10862;51.886;17.078;2022-09-13T06:36:07;14.00;99.90
21403;DHT22;10862;51.886;17.078;2022-09-13T06:38:32;14.00;99.90
21403;DHT22;10862;51.886;17.078;2022-09-13T06:40:59;14.20;99.90
21403;DHT22;10862;51.886;17.078;2022-09-13T06:43:24;14.10;99.90
21403;DHT22;10862;51.886;17.078;2022-09-13T06:45:50;14.30;99.90
21403;DHT22;10862;51.886;17.078;2022-09-13T06:48:18;14.30;99.90
21403;DHT22;10862;51.886;17.078;2022-09-13T06:50:43;14.40;99.90
21403;DHT22;10862;51.886;17.078;2022-09-13T06:53:10;14.40;99.90
21403;DHT22;10862;51.886;17.078;2022-09-13T06:55:35;14.30;99.90
21403;DHT22;10862;51.886;17.078;2022-09-13T06:58:01;14.30;99.90
21403;DHT22;10862;51.886;17.078;2022-09-13T07:00:26;14.50;99.90
21403;DHT22;10862;51.886;17.078;2022-09-13T07:02:52;14.60;99.90
21403;DHT22;10862;51.886;17.078;2022-09-13T07:05:17;14.80;99.90
21403;DHT22;10862;51.886;17.078;2022-09-13T07:07:45;14.80;99.90
21403;DHT22;10862;51.886;17.078;2022-09-13T07:10:10;15.00;99.90
21403;DHT22;10862;51.886;17.078;2022-09-13T07:12:36;15.00;99.90
21403;DHT22;10862;51.886;17.078;2022-09-13T07:15:04;15.20;99.90
21403;DHT22;10862;51.886;17.078;2022-09-13T07:17:29;15.20;99.90
21403;DHT22;10862;51.886;17.078;2022-09-13T07:19:55;15.30;99.90
21403;DHT22;10862;51.886;17.078;2022-09-13T07:22:20;15.40;99.90
21403;DHT22;10862;51.886;17.078;2022-09-13T07:24:51;15.80;99.90
21403;DHT22;10862;51.886;17.078;2022-09-13T07:27:16;16.10;99.90
21403;DHT22;10862;51.886;17.078;2022-09-13T07:29:42;15.80;99.90
21403;DHT22;10862;51.886;17.078;2022-09-13T07:32:07;15.80;99.90
21403;DHT22;10862;51.886;17.078;2022-09-13T07:34:33;15.50;99.90
21403;DHT22;10862;51.886;17.078;2022-09-13T07:36:58;15.40;99.90
21403;DHT22;10862;51.886;17.078;2022-09-13T07:39:24;15.60;99.90
21403;DHT22;10862;51.886;17.078;2022-09-13T07:41:50;15.70;99.90
21403;DHT22;10862;51.886;17.078;2022-09-13T07:44:15;15.80;99.90
21403;DHT22;10862;51.886;17.078;2022-09-13T07:46:41;16.00;99.90
21403;DHT22;10862;51.886;17.078;2022-09-13T07:49:09;16.10;99.90
21403;DHT22;10862;51.886;17.078;2022-09-13T07:51:35;16.30;99.90
21403;DHT22;10862;51.886;17.078;2022-09-13T07:54:02;16.10;99.90
21403;DHT22;10862;51.886;17.078;2022-09-13T07:56:30;16.30;99.90
21403;DHT22;10862;51.886;17.078;2022-09-13T07:58:57;16.40;99.90
21403;DHT22;10862;51.886;17.078;2022-09-13T08:01:28;16.40;99.90
21403;DHT22;10862;51.886;17.078;2022-09-13T08:04:01;16.60;99.90
21403;DHT22;10862;51.886;17.078;2022-09-13T08:06:28;16.40;99.90
21403;DHT22;10862;51.886;17.078;2022-09-13T08:08:54;16.60;99.90
21403;DHT22;10862;51.886;17.078;2022-09-13T08:11:20;16.90;99.90
21403;DHT22;10862;51.886;17.078;2022-09-13T08:13:46;17.20;99.90
21403;DHT22;10862;51.886;17.078;2022-09-13T08:16:12;17.60;99.90
21403;DHT22;10862;51.886;17.078;2022-09-13T08:19:12;17.80;99.90
21403;DHT22;10862;51.886;17.078;2022-09-13T08:21:31;17.50;99.90
21403;DHT22;10862;51.886;17.078;2022-09-13T08:23:57;17.40;99.90
21403;DHT22;10862;51.886;17.078;2022-09-13T08:26:28;17.70;99.90
21403;DHT22;10862;51.886;17.078;2022-09-13T08:28:57;17.70;99.90
21403;DHT22;10862;51.886;17.078;2022-09-13T08:31:23;17.60;99.90
21403;DHT22;10862;51.886;17.078;2022-09-13T08:33:49;17.60;99.90
21403;DHT22;10862;51.886;17.078;2022-09-13T08:36:14;17.70;99.90
21403;DHT22;10862;51.886;17.078;2022-09-13T08:38:47;17.90;99.90
21403;DHT22;10862;51.886;17.078;2022-09-13T08:46:32;19.00;99.90
21403;DHT22;10862;51.886;17.078;2022-09-13T08:49:06;19.30;99.90
21403;DHT22;10862;51.886;17.078;2022-09-13T08:51:45;19.80;99.90
21403;DHT22;10862;51.886;17.078;2022-09-13T08:54:12;19.50;99.90
21403;DHT22;10862;51.886;17.078;2022-09-13T08:59:21;19.10;99.90
21403;DHT22;10862;51.886;17.078;2022-09-13T09:04:46;18.90;99.90
21403;DHT22;10862;51.886;17.078;2022-09-13T09:07:29;18.80;99.90
21403;DHT22;10862;51.886;17.078;2022-09-13T09:09:57;18.80;99.90
21403;DHT22;10862;51.886;17.078;2022-09-13T09:12:26;18.90;99.90
21403;DHT22;10862;51.886;17.078;2022-09-13T09:14:59;18.80;99.90
21403;DHT22;10862;51.886;17.078;2022-09-13T09:17:26;18.90;99.90
21403;DHT22;10862;51.886;17.078;2022-09-13T09:20:00;18.70;99.90
21403;DHT22;10862;51.886;17.078;2022-09-13T09:22:33;18.60;99.90
21403;DHT22;10862;51.886;17.078;2022-09-13T09:25:00;18.50;99.90
21403;DHT22;10862;51.886;17.078;2022-09-13T09:27:28;18.50;99.90
21403;DHT22;10862;51.886;17.078;2022-09-13T09:29:54;18.50;99.90
21403;DHT22;10862;51.886;17.078;2022-09-13T09:37:59;18.30;99.90
21403;DHT22;10862;51.886;17.078;2022-09-13T09:40:30;18.20;99.90
21403;DHT22;10862;51.886;17.078;2022-09-13T09:42:56;18.20;99.90
21403;DHT22;10862;51.886;17.078;2022-09-13T09:47:48;18.30;99.90
21403;DHT22;10862;51.886;17.078;2022-09-13T09:50:15;18.30;99.90
21403;DHT22;10862;51.886;17.078;2022-09-13T09:52:48;18.40;99.90
21403;DHT22;10862;51.886;17.078;2022-09-13T09:57:48;18.50;99.90
21403;DHT22;10862;51.886;17.078;2022-09-13T10:00:14;18.40;99.90
21403;DHT22;10862;51.886;17.078;2022-09-13T10:02:43;18.50;99.90
21403;DHT22;10862;51.886;17.078;2022-09-13T10:05:09;18.40;99.90
21403;DHT22;10862;51.886;17.078;2022-09-13T10:07:34;18.30;99.90
21403;DHT22;10862;51.886;17.078;2022-09-13T10:12:29;18.20;99.90
21403;DHT22;10862;51.886;17.078;2022-09-13T10:15:02;18.20;99.90
21403;DHT22;10862;51.886;17.078;2022-09-13T10:17:27;18.20;99.90
21403;DHT22;10862;51.886;17.078;2022-09-13T10:20:00;18.40;99.90
21403;DHT22;10862;51.886;17.078;2022-09-13T10:22:27;18.40;99.90
21403;DHT22;10862;51.886;17.078;2022-09-13T10:24:53;18.50;99.90
21403;DHT22;10862;51.886;17.078;2022-09-13T10:27:20;18.80;99.90
21403;DHT22;10862;51.886;17.078;2022-09-13T10:29:47;18.80;99.90
21403;DHT22;10862;51.886;17.078;2022-09-13T10:32:14;19.00;99.90
21403;DHT22;10862;51.886;17.078;2022-09-13T10:34:44;19.20;99.90
21403;DHT22;10862;51.886;17.078;2022-09-13T10:39:35;19.10;99.90
21403;DHT22;10862;51.886;17.078;2022-09-13T10:46:52;19.20;99.90
21403;DHT22;10862;51.886;17.078;2022-09-13T10:54:46;19.70;99.90
21403;DHT22;10862;51.886;17.078;2022-09-13T10:57:31;20.50;99.90
21403;DHT22;10862;51.886;17.078;2022-09-13T10:59:57;20.70;99.90
21403;DHT22;10862;51.886;17.078;2022-09-13T11:02:33;22.90;99.90
21403;DHT22;10862;51.886;17.078;2022-09-13T11:10:14;20.70;99.90
21403;DHT22;10862;51.886;17.078;2022-09-13T11:15:45;21.80;99.90
21403;DHT22;10862;51.886;17.078;2022-09-13T11:21:02;23.90;99.90
21403;DHT22;10862;51.886;17.078;2022-09-13T11:36:57;21.90;99.90
21403;DHT22;10862;51.886;17.078;2022-09-13T11:42:04;21.10;99.90
21403;DHT22;10862;51.886;17.078;2022-09-13T11:49:42;20.30;99.90
21403;DHT22;10862;51.886;17.078;2022-09-13T11:57:34;20.00;99.90
21403;DHT22;10862;51.886;17.078;2022-09-13T12:00:17;20.00;99.90
21403;DHT22;10862;51.886;17.078;2022-09-13T12:05:32;19.90;99.90
21403;DHT22;10862;51.886;17.078;2022-09-13T12:08:05;19.90;99.90
21403;DHT22;10862;51.886;17.078;2022-09-13T12:13:18;19.80;99.90
21403;DHT22;10862;51.886;17.078;2022-09-13T12:15:45;19.70;99.90
21403;DHT22;10862;51.886;17.078;2022-09-13T12:18:13;19.50;99.90
21403;DHT22;10862;51.886;17.078;2022-09-13T12:20:47;19.50;99.90
21403;DHT22;10862;51.886;17.078;2022-09-13T12:23:23;19.40;99.90
21403;DHT22;10862;51.886;17.078;2022-09-13T12:26:25;19.40;99.90
21403;DHT22;10862;51.886;17.078;2022-09-13T12:28:56;19.60;99.90
21403;DHT22;10862;51.886;17.078;2022-09-13T12:31:27;19.70;99.90
21403;DHT22;10862;51.886;17.078;2022-09-13T12:33:53;19.60;99.90
21403;DHT22;10862;51.886;17.078;2022-09-13T12:41:54;19.40;99.90
21403;DHT22;10862;51.886;17.078;2022-09-13T12:44:30;19.40;99.90
21403;DHT22;10862;51.886;17.078;2022-09-13T12:54:52;19.40;99.90
21403;DHT22;10862;51.886;17.078;2022-09-13T13:07:50;19.30;99.90
21403;DHT22;10862;51.886;17.078;2022-09-13T13:10:23;19.20;99.90
21403;DHT22;10862;51.886;17.078;2022-09-13T13:12:49;19.10;99.90
21403;DHT22;10862;51.886;17.078;2022-09-13T13:22:52;19.20;99.90
21403;DHT22;10862;51.886;17.078;2022-09-13T13:27:55;19.00;99.90
21403;DHT22;10862;51.886;17.078;2022-09-13T13:30:38;19.00;99.90
21403;DHT22;10862;51.886;17.078;2022-09-13T13:33:21;19.00;99.90
21403;DHT22;10862;51.886;17.078;2022-09-13T13:35:47;19.10;99.90
21403;DHT22;10862;51.886;17.078;2022-09-13T13:40:47;19.40;99.90
21403;DHT22;10862;51.886;17.078;2022-09-13T13:43:16;19.30;99.90
21403;DHT22;10862;51.886;17.078;2022-09-13T13:45:56;19.40;99.90
21403;DHT22;10862;51.886;17.078;2022-09-13T13:48:38;19.40;99.90
21403;DHT22;10862;51.886;17.078;2022-09-13T13:53:44;19.40;99.90
21403;DHT22;10862;51.886;17.078;2022-09-13T13:56:16;19.40;99.90
21403;DHT22;10862;51.886;17.078;2022-09-13T13:58:44;19.50;99.90
21403;DHT22;10862;51.886;17.078;2022-09-13T14:01:22;19.80;99.90
21403;DHT22;10862;51.886;17.078;2022-09-13T14:12:09;19.90;99.90
21403;DHT22;10862;51.886;17.078;2022-09-13T14:19:41;20.00;99.90
21403;DHT22;10862;51.886;17.078;2022-09-13T14:24:37;19.80;99.90
21403;DHT22;10862;51.886;17.078;2022-09-13T14:27:03;19.70;99.90
21403;DHT22;10862;51.886;17.078;2022-09-13T14:29:29;19.50;99.90
21403;DHT22;10862;51.886;17.078;2022-09-13T14:32:00;19.40;99.90
21403;DHT22;10862;51.886;17.078;2022-09-13T14:34:28;19.30;99.90
21403;DHT22;10862;51.886;17.078;2022-09-13T14:36:55;19.30;99.90
21403;DHT22;10862;51.886;17.078;2022-09-13T14:39:20;19.40;99.90
21403;DHT22;10862;51.886;17.078;2022-09-13T14:41:46;19.30;99.90
21403;DHT22;10862;51.886;17.078;2022-09-13T14:46:40;19.50;99.90
21403;DHT22;10862;51.886;17.078;2022-09-13T14:49:07;19.60;99.90
21403;DHT22;10862;51.886;17.078;2022-09-13T14:51:38;20.30;99.90
21403;DHT22;10862;51.886;17.078;2022-09-13T14:54:11;20.30;99.90
21403;DHT22;10862;51.886;17.078;2022-09-13T14:56:40;20.20;99.90
21403;DHT22;10862;51.886;17.078;2022-09-13T14:59:12;20.00;99.90
21403;DHT22;10862;51.886;17.078;2022-09-13T15:01:38;19.80;99.90
21403;DHT22;10862;51.886;17.078;2022-09-13T15:04:03;19.70;99.90
21403;DHT22;10862;51.886;17.078;2022-09-13T15:06:31;19.60;99.90
21403;DHT22;10862;51.886;17.078;2022-09-13T15:09:00;19.40;99.90
21403;DHT22;10862;51.886;17.078;2022-09-13T15:11:41;19.40;99.90
21403;DHT22;10862;51.886;17.078;2022-09-13T15:14:31;19.30;99.90
21403;DHT22;10862;51.886;17.078;2022-09-13T15:16:58;19.40;99.90
21403;DHT22;10862;51.886;17.078;2022-09-13T15:19:34;19.30;99.90
21403;DHT22;10862;51.886;17.078;2022-09-13T15:22:42;19.20;99.90
21403;DHT22;10862;51.886;17.078;2022-09-13T15:24:50;19.20;99.90
21403;DHT22;10862;51.886;17.078;2022-09-13T15:27:17;19.20;99.90
21403;DHT22;10862;51.886;17.078;2022-09-13T15:29:49;19.10;99.90
21403;DHT22;10862;51.886;17.078;2022-09-13T15:32:38;19.00;99.90
21403;DHT22;10862;51.886;17.078;2022-09-13T15:35:24;19.00;99.90
21403;DHT22;10862;51.886;17.078;2022-09-13T15:38:01;18.90;99.90
21403;DHT22;10862;51.886;17.078;2022-09-13T15:40:46;18.90;99.90
21403;DHT22;10862;51.886;17.078;2022-09-13T15:43:12;18.90;99.90
21403;DHT22;10862;51.886;17.078;2022-09-13T15:45:37;18.90;99.90
21403;DHT22;10862;51.886;17.078;2022-09-13T15:48:03;18.80;99.90
21403;DHT22;10862;51.886;17.078;2022-09-13T15:50:29;18.80;99.90
21403;DHT22;10862;51.886;17.078;2022-09-13T15:52:59;18.80;99.90
21403;DHT22;10862;51.886;17.078;2022-09-13T15:55:25;18.80;99.90
21403;DHT22;10862;51.886;17.078;2022-09-13T15:57:51;18.80;99.90
21403;DHT22;10862;51.886;17.078;2022-09-13T16:00:18;18.80;99.90
21403;DHT22;10862;51.886;17.078;2022-09-13T16:02:44;18.80;99.90
21403;DHT22;10862;51.886;17.078;2022-09-13T16:05:10;18.80;99.90
21403;DHT22;10862;51.886;17.078;2022-09-13T16:07:36;18.80;99.90
21403;DHT22;10862;51.886;17.078;2022-09-13T16:10:02;18.80;99.90
21403;DHT22;10862;51.886;17.078;2022-09-13T16:12:28;18.80;99.90
21403;DHT22;10862;51.886;17.078;2022-09-13T16:14:53;18.80;99.90
21403;DHT22;10862;51.886;17.078;2022-09-13T16:17:20;18.80;99.90
21403;DHT22;10862;51.886;17.078;2022-09-13T16:19:46;18.80;99.90
21403;DHT22;10862;51.886;17.078;2022-09-13T16:22:12;18.80;99.90
21403;DHT22;10862;51.886;17.078;2022-09-13T16:24:37;18.70;99.90
21403;DHT22;10862;51.886;17.078;2022-09-13T16:27:03;18.70;99.90
21403;DHT22;10862;51.886;17.078;2022-09-13T16:29:29;18.60;99.90
21403;DHT22;10862;51.886;17.078;2022-09-13T16:31:54;18.50;99.90
21403;DHT22;10862;51.886;17.078;2022-09-13T16:34:21;18.50;99.90
21403;DHT22;10862;51.886;17.078;2022-09-13T16:36:47;18.40;99.90
21403;DHT22;10862;51.886;17.078;2022-09-13T16:39:12;18.50;99.90
21403;DHT22;10862;51.886;17.078;2022-09-13T16:41:38;18.30;99.90
21403;DHT22;10862;51.886;17.078;2022-09-13T16:44:04;18.20;99.90
21403;DHT22;10862;51.886;17.078;2022-09-13T16:46:30;18.00;99.90
21403;DHT22;10862;51.886;17.078;2022-09-13T16:48:56;18.10;99.90
21403;DHT22;10862;51.886;17.078;2022-09-13T16:51:22;18.10;99.90
21403;DHT22;10862;51.886;17.078;2022-09-13T16:53:49;18.10;99.90
21403;DHT22;10862;51.886;17.078;2022-09-13T16:56:15;18.10;99.90
21403;DHT22;10862;51.886;17.078;2022-09-13T16:58:42;18.00;99.90
21403;DHT22;10862;51.886;17.078;2022-09-13T17:01:08;18.00;99.90
21403;DHT22;10862;51.886;17.078;2022-09-13T17:03:34;17.90;99.90
21403;DHT22;10862;51.886;17.078;2022-09-13T17:06:01;18.00;99.90
21403;DHT22;10862;51.886;17.078;2022-09-13T17:08:27;17.90;99.90
21403;DHT22;10862;51.886;17.078;2022-09-13T17:10:52;17.90;99.90
21403;DHT22;10862;51.886;17.078;2022-09-13T17:13:18;17.90;99.90
21403;DHT22;10862;51.886;17.078;2022-09-13T17:15:43;17.90;99.90
21403;DHT22;10862;51.886;17.078;2022-09-13T17:18:09;17.90;99.90
21403;DHT22;10862;51.886;17.078;2022-09-13T17:20:35;17.90;99.90
21403;DHT22;10862;51.886;17.078;2022-09-13T17:23:00;17.90;99.90
21403;DHT22;10862;51.886;17.078;2022-09-13T17:25:26;17.90;99.90
21403;DHT22;10862;51.886;17.078;2022-09-13T17:27:51;17.90;99.90
21403;DHT22;10862;51.886;17.078;2022-09-13T17:30:17;17.90;99.90
21403;DHT22;10862;51.886;17.078;2022-09-13T17:32:43;17.90;99.90
21403;DHT22;10862;51.886;17.078;2022-09-13T17:35:08;17.70;99.90
21403;DHT22;10862;51.886;17.078;2022-09-13T17:37:36;17.80;99.90
21403;DHT22;10862;51.886;17.078;2022-09-13T17:40:01;17.70;99.90
21403;DHT22;10862;51.886;17.078;2022-09-13T17:42:27;17.70;99.90
21403;DHT22;10862;51.886;17.078;2022-09-13T17:44:52;17.60;99.90
21403;DHT22;10862;51.886;17.078;2022-09-13T17:47:18;17.70;99.90
21403;DHT22;10862;51.886;17.078;2022-09-13T17:49:43;17.60;99.90
21403;DHT22;10862;51.886;17.078;2022-09-13T17:52:10;17.60;99.90
21403;DHT22;10862;51.886;17.078;2022-09-13T17:54:36;17.60;99.90
21403;DHT22;10862;51.886;17.078;2022-09-13T17:57:01;17.70;99.90
21403;DHT22;10862;51.886;17.078;2022-09-13T17:59:27;17.70;99.90
21403;DHT22;10862;51.886;17.078;2022-09-13T18:01:53;17.60;99.90
21403;DHT22;10862;51.886;17.078;2022-09-13T18:04:20;17.60;99.90
21403;DHT22;10862;51.886;17.078;2022-09-13T18:06:45;17.70;99.90
21403;DHT22;10862;51.886;17.078;2022-09-13T18:09:12;17.60;99.90
21403;DHT22;10862;51.886;17.078;2022-09-13T18:11:38;17.60;99.90
21403;DHT22;10862;51.886;17.078;2022-09-13T18:14:04;17.50;99.90
21403;DHT22;10862;51.886;17.078;2022-09-13T18:16:30;17.40;99.90
21403;DHT22;10862;51.886;17.078;2022-09-13T18:18:56;17.40;99.90
21403;DHT22;10862;51.886;17.078;2022-09-13T18:21:23;17.50;99.90
21403;DHT22;10862;51.886;17.078;2022-09-13T18:23:53;17.50;99.90
21403;DHT22;10862;51.886;17.078;2022-09-13T18:26:20;17.50;99.90